createdAt,value
2022-12-25T00:29:19.706Z,160
2022-12-25T00:59:19.300Z,160
2022-12-25T01:29:16.352Z,157
2022-12-25T01:59:17.599Z,156
2022-12-25T02:29:16.369Z,153
2022-12-25T02:59:11.246Z,153
2022-12-25T03:29:14.492Z,146
2022-12-25T03:59:11.723Z,147
2022-12-25T04:29:12.350Z,142
2022-12-25T04:59:14.478Z,141
2022-12-25T05:29:17.014Z,140
2022-12-25T05:59:12.701Z,141
2022-12-25T06:29:09.356Z,153
2022-12-25T06:59:13.473Z,150
2022-12-25T07:29:14.567Z,137
2022-12-25T07:59:15.692Z,131
2022-12-25T08:29:16.527Z,137
2022-12-25T08:59:19.584Z,131
2022-12-25T09:29:13.377Z,130
2022-12-25T09:59:15.428Z,139
2022-12-25T10:29:20.625Z,133
2022-12-25T10:59:25.145Z,129
2022-12-25T11:29:27.443Z,125
2022-12-25T11:59:27.429Z,126
2022-12-25T12:29:27.094Z,129
2022-12-25T13:00:37.724Z,125
2022-12-25T13:30:32.859Z,120
2022-12-25T14:00:34.202Z,123
2022-12-25T14:30:32.758Z,125
2022-12-25T15:00:28.222Z,120
2022-12-25T15:30:28.508Z,186
2022-12-25T16:00:29.272Z,134
2022-12-25T16:30:38.393Z,131
2022-12-25T17:00:38.996Z,155
2022-12-25T17:30:38.570Z,135
2022-12-25T18:00:41.166Z,129
2022-12-25T18:30:41.366Z,135
2022-12-25T19:00:38.067Z,129
2022-12-25T19:30:35.936Z,124
2022-12-25T20:00:34.505Z,121
2022-12-25T20:30:33.123Z,118
2022-12-25T21:00:38.378Z,116
2022-12-25T21:30:36.552Z,115
2022-12-25T22:00:36.365Z,110
2022-12-25T22:30:39.934Z,108
2022-12-25T23:00:40.854Z,107
2022-12-25T23:30:39.361Z,103
